sensor_id;sensor_type;location;lat;lon;timestamp;noise_LAeq;noise_LA_min;noise_LA_max;noise_LA01;noise_LA95
66888;Laerm;67239;51.680;5.976;2023-07-22T00:01:08;57.90;34.57;78.11;;
66888;Laerm;67239;51.680;5.976;2023-07-22T00:03:35;46.81;33.76;65.54;;
66888;Laerm;67239;51.680;5.976;2023-07-22T00:06:05;37.71;33.75;48.36;;
66888;Laerm;67239;51.680;5.976;2023-07-22T00:08:38;55.90;33.24;76.06;;
66888;Laerm;67239;51.680;5.976;2023-07-22T00:11:06;56.63;33.29;77.23;;
66888;Laerm;67239;51.680;5.976;2023-07-22T00:13:34;36.28;33.68;46.34;;
66888;Laerm;67239;51.680;5.976;2023-07-22T00:16:01;36.49;33.04;45.06;;
66888;Laerm;67239;51.680;5.976;2023-07-22T00:18:32;36.41;33.73;40.90;;
66888;Laerm;67239;51.680;5.976;2023-07-22T00:20:59;40.53;34.21;55.76;;
66888;Laerm;67239;51.680;5.976;2023-07-22T00:23:26;57.29;33.83;74.33;;
66888;Laerm;67239;51.680;5.976;2023-07-22T00:25:54;36.63;33.33;43.46;;
66888;Laerm;67239;51.680;5.976;2023-07-22T00:28:21;49.33;33.33;72.66;;
66888;Laerm;67239;51.680;5.976;2023-07-22T00:30:48;36.15;32.77;40.86;;
66888;Laerm;67239;51.680;5.976;2023-07-22T00:33:16;35.89;33.60;42.62;;
66888;Laerm;67239;51.680;5.976;2023-07-22T00:35:48;36.46;33.63;43.22;;
66888;Laerm;67239;51.680;5.976;2023-07-22T00:38:17;54.83;34.05;71.52;;
66888;Laerm;67239;51.680;5.976;2023-07-22T00:40:45;55.36;34.09;74.99;;
66888;Laerm;67239;51.680;5.976;2023-07-22T00:43:12;36.90;33.98;40.36;;
66888;Laerm;67239;51.680;5.976;2023-07-22T00:45:39;36.57;34.11;42.05;;
66888;Laerm;67239;51.680;5.976;2023-07-22T00:48:08;37.50;34.67;43.16;;
66888;Laerm;67239;51.680;5.976;2023-07-22T00:50:38;37.69;34.68;49.26;;
66888;Laerm;67239;51.680;5.976;2023-07-22T00:53:06;37.62;34.53;43.97;;
66888;Laerm;67239;51.680;5.976;2023-07-22T00:55:35;37.74;34.99;42.56;;
66888;Laerm;67239;51.680;5.976;2023-07-22T00:58:02;39.12;35.90;43.86;;
66888;Laerm;67239;51.680;5.976;2023-07-22T01:00:30;38.54;35.03;51.08;;
66888;Laerm;67239;51.680;5.976;2023-07-22T01:02:58;36.72;32.86;40.43;;
66888;Laerm;67239;51.680;5.976;2023-07-22T01:05:27;37.07;33.98;42.34;;
66888;Laerm;67239;51.680;5.976;2023-07-22T01:07:54;59.85;34.55;75.97;;
66888;Laerm;67239;51.680;5.976;2023-07-22T01:10:22;50.91;34.68;66.45;;
66888;Laerm;67239;51.680;5.976;2023-07-22T01:12:49;41.90;35.73;62.27;;
66888;Laerm;67239;51.680;5.976;2023-07-22T01:15:17;60.20;34.97;78.32;;
66888;Laerm;67239;51.680;5.976;2023-07-22T01:17:45;39.57;35.20;62.85;;
66888;Laerm;67239;51.680;5.976;2023-07-22T01:20:13;37.00;34.68;43.02;;
66888;Laerm;67239;51.680;5.976;2023-07-22T01:22:48;38.11;34.54;57.55;;
66888;Laerm;67239;51.680;5.976;2023-07-22T01:25:16;36.51;34.08;41.99;;
66888;Laerm;67239;51.680;5.976;2023-07-22T01:27:44;36.88;34.06;43.78;;
66888;Laerm;67239;51.680;5.976;2023-07-22T01:30:11;36.73;33.62;42.36;;
66888;Laerm;67239;51.680;5.976;2023-07-22T01:32:38;37.69;34.35;43.18;;
66888;Laerm;67239;51.680;5.976;2023-07-22T01:35:07;38.13;35.50;42.25;;
66888;Laerm;67239;51.680;5.976;2023-07-22T01:37:35;62.30;35.51;79.78;;
66888;Laerm;67239;51.680;5.976;2023-07-22T01:40:05;37.68;34.88;41.07;;
66888;Laerm;67239;51.680;5.976;2023-07-22T01:42:40;38.27;34.32;42.15;;
66888;Laerm;67239;51.680;5.976;2023-07-22T01:45:09;37.99;34.70;43.20;;
66888;Laerm;67239;51.680;5.976;2023-07-22T01:47:38;37.84;34.87;42.84;;
66888;Laerm;67239;51.680;5.976;2023-07-22T01:50:06;45.70;34.73;69.96;;
66888;Laerm;67239;51.680;5.976;2023-07-22T01:52:34;50.48;34.39;69.92;;
66888;Laerm;67239;51.680;5.976;2023-07-22T01:55:02;37.21;34.33;41.60;;
66888;Laerm;67239;51.680;5.976;2023-07-22T01:57:32;37.90;35.02;47.35;;
66888;Laerm;67239;51.680;5.976;2023-07-22T02:00:00;37.73;34.12;45.00;;
66888;Laerm;67239;51.680;5.976;2023-07-22T02:02:27;59.30;33.75;78.02;;
66888;Laerm;67239;51.680;5.976;2023-07-22T02:04:54;36.68;33.62;42.75;;
66888;Laerm;67239;51.680;5.976;2023-07-22T02:07:22;37.37;34.47;42.02;;
66888;Laerm;67239;51.680;5.976;2023-07-22T02:09:49;54.90;32.95;72.51;;
66888;Laerm;67239;51.680;5.976;2023-07-22T02:12:18;38.12;33.65;56.71;;
66888;Laerm;67239;51.680;5.976;2023-07-22T02:14:46;37.51;34.07;43.21;;
66888;Laerm;67239;51.680;5.976;2023-07-22T02:17:13;40.02;33.77;52.01;;
66888;Laerm;67239;51.680;5.976;2023-07-22T02:19:40;37.16;34.61;44.00;;
66888;Laerm;67239;51.680;5.976;2023-07-22T02:22:07;37.08;33.79;43.99;;
66888;Laerm;67239;51.680;5.976;2023-07-22T02:24:34;58.57;33.49;79.21;;
66888;Laerm;67239;51.680;5.976;2023-07-22T02:27:02;38.92;34.64;58.82;;
66888;Laerm;67239;51.680;5.976;2023-07-22T02:29:30;55.21;34.79;73.11;;
66888;Laerm;67239;51.680;5.976;2023-07-22T02:31:58;37.31;34.60;44.42;;
66888;Laerm;67239;51.680;5.976;2023-07-22T02:34:25;56.68;34.75;74.61;;
66888;Laerm;67239;51.680;5.976;2023-07-22T02:36:52;37.22;33.36;53.79;;
66888;Laerm;67239;51.680;5.976;2023-07-22T02:39:20;38.53;34.70;46.39;;
66888;Laerm;67239;51.680;5.976;2023-07-22T02:41:47;36.88;33.85;42.17;;
66888;Laerm;67239;51.680;5.976;2023-07-22T02:44:14;37.96;35.03;42.97;;
66888;Laerm;67239;51.680;5.976;2023-07-22T02:46:42;52.40;34.60;69.93;;
66888;Laerm;67239;51.680;5.976;2023-07-22T02:49:09;38.55;35.04;46.04;;
66888;Laerm;67239;51.680;5.976;2023-07-22T02:51:36;37.73;34.91;43.06;;
66888;Laerm;67239;51.680;5.976;2023-07-22T02:54:04;36.03;32.96;43.18;;
66888;Laerm;67239;51.680;5.976;2023-07-22T02:56:31;36.02;33.32;42.62;;
66888;Laerm;67239;51.680;5.976;2023-07-22T02:58:58;38.34;34.16;45.12;;
66888;Laerm;67239;51.680;5.976;2023-07-22T03:01:25;38.38;34.55;52.58;;
66888;Laerm;67239;51.680;5.976;2023-07-22T03:03:53;38.81;34.84;50.16;;
66888;Laerm;67239;51.680;5.976;2023-07-22T03:06:20;55.19;34.50;73.73;;
66888;Laerm;67239;51.680;5.976;2023-07-22T03:08:47;47.59;34.72;70.49;;
66888;Laerm;67239;51.680;5.976;2023-07-22T03:11:16;54.46;34.28;72.05;;
66888;Laerm;67239;51.680;5.976;2023-07-22T03:13:43;39.70;35.12;55.12;;
66888;Laerm;67239;51.680;5.976;2023-07-22T03:16:10;38.73;34.19;50.63;;
66888;Laerm;67239;51.680;5.976;2023-07-22T03:18:37;56.46;34.45;75.66;;
66888;Laerm;67239;51.680;5.976;2023-07-22T03:21:06;59.21;34.20;75.10;;
66888;Laerm;67239;51.680;5.976;2023-07-22T03:23:34;58.54;36.06;74.99;;
66888;Laerm;67239;51.680;5.976;2023-07-22T03:26:01;59.30;34.98;76.28;;
66888;Laerm;67239;51.680;5.976;2023-07-22T03:28:28;39.90;34.76;50.66;;
66888;Laerm;67239;51.680;5.976;2023-07-22T03:30:55;54.84;35.45;70.81;;
66888;Laerm;67239;51.680;5.976;2023-07-22T03:33:23;40.44;34.85;49.74;;
66888;Laerm;67239;51.680;5.976;2023-07-22T03:35:50;57.62;35.98;72.40;;
66888;Laerm;67239;51.680;5.976;2023-07-22T03:38:17;58.08;35.33;72.13;;
66888;Laerm;67239;51.680;5.976;2023-07-22T03:40:44;41.64;35.22;52.66;;
66888;Laerm;67239;51.680;5.976;2023-07-22T03:43:11;54.14;36.14;73.72;;
66888;Laerm;67239;51.680;5.976;2023-07-22T03:45:38;58.35;35.98;76.38;;
66888;Laerm;67239;51.680;5.976;2023-07-22T03:48:06;42.10;35.59;69.24;;
66888;Laerm;67239;51.680;5.976;2023-07-22T03:50:33;63.35;36.08;81.13;;
66888;Laerm;67239;51.680;5.976;2023-07-22T03:53:02;41.05;36.25;47.19;;
66888;Laerm;67239;51.680;5.976;2023-07-22T03:55:29;60.60;35.37;76.85;;
66888;Laerm;67239;51.680;5.976;2023-07-22T03:57:56;54.34;34.97;71.99;;
66888;Laerm;67239;51.680;5.976;2023-07-22T04:00:23;58.26;36.32;75.17;;
66888;Laerm;67239;51.680;5.976;2023-07-22T04:02:50;63.21;35.52;82.69;;
66888;Laerm;67239;51.680;5.976;2023-07-22T04:05:18;65.67;37.95;81.43;;
66888;Laerm;67239;51.680;5.976;2023-07-22T04:07:46;63.87;38.32;79.29;;
66888;Laerm;67239;51.680;5.976;2023-07-22T04:10:13;54.83;36.32;71.06;;
66888;Laerm;67239;51.680;5.976;2023-07-22T04:12:40;60.11;36.62;78.65;;
66888;Laerm;67239;51.680;5.976;2023-07-22T04:15:09;53.66;36.02;70.13;;
66888;Laerm;67239;51.680;5.976;2023-07-22T04:17:36;56.88;36.17;75.78;;
66888;Laerm;67239;51.680;5.976;2023-07-22T04:20:04;41.89;36.05;63.63;;
66888;Laerm;67239;51.680;5.976;2023-07-22T04:22:34;59.56;36.22;74.18;;
66888;Laerm;67239;51.680;5.976;2023-07-22T04:25:01;41.00;36.53;55.09;;
66888;Laerm;67239;51.680;5.976;2023-07-22T04:27:28;41.27;37.10;54.61;;
66888;Laerm;67239;51.680;5.976;2023-07-22T04:29:55;52.14;35.73;73.59;;
66888;Laerm;67239;51.680;5.976;2023-07-22T04:32:23;64.05;36.53;78.40;;
66888;Laerm;67239;51.680;5.976;2023-07-22T04:34:51;44.66;36.15;60.26;;
66888;Laerm;67239;51.680;5.976;2023-07-22T04:37:18;60.73;36.41;79.38;;
66888;Laerm;67239;51.680;5.976;2023-07-22T04:39:48;40.09;36.22;50.04;;
66888;Laerm;67239;51.680;5.976;2023-07-22T04:42:16;58.82;37.20;75.57;;
66888;Laerm;67239;51.680;5.976;2023-07-22T04:44:48;59.28;39.33;75.72;;
66888;Laerm;67239;51.680;5.976;2023-07-22T04:47:16;60.71;38.49;76.87;;
66888;Laerm;67239;51.680;5.976;2023-07-22T04:49:43;64.16;39.13;80.11;;
66888;Laerm;67239;51.680;5.976;2023-07-22T04:52:11;54.46;37.07;73.83;;
66888;Laerm;67239;51.680;5.976;2023-07-22T04:54:38;59.85;37.29;80.70;;
66888;Laerm;67239;51.680;5.976;2023-07-22T04:57:05;60.22;37.40;74.78;;
66888;Laerm;67239;51.680;5.976;2023-07-22T04:59:32;61.03;36.81;76.53;;
66888;Laerm;67239;51.680;5.976;2023-07-22T05:02:00;59.11;37.27;75.68;;
66888;Laerm;67239;51.680;5.976;2023-07-22T05:04:27;40.53;36.33;52.23;;
66888;Laerm;67239;51.680;5.976;2023-07-22T05:06:55;57.58;36.19;77.01;;
66888;Laerm;67239;51.680;5.976;2023-07-22T05:09:27;62.81;38.29;80.18;;
66888;Laerm;67239;51.680;5.976;2023-07-22T05:11:55;62.66;36.89;80.08;;
66888;Laerm;67239;51.680;5.976;2023-07-22T05:14:22;57.22;36.50;75.27;;
66888;Laerm;67239;51.680;5.976;2023-07-22T05:16:50;53.84;36.90;70.17;;
66888;Laerm;67239;51.680;5.976;2023-07-22T05:19:18;61.96;37.04;77.56;;
66888;Laerm;67239;51.680;5.976;2023-07-22T05:21:45;40.48;37.02;47.59;;
66888;Laerm;67239;51.680;5.976;2023-07-22T05:24:14;59.78;38.78;78.05;;
66888;Laerm;67239;51.680;5.976;2023-07-22T05:26:41;39.63;36.41;51.83;;
66888;Laerm;67239;51.680;5.976;2023-07-22T05:29:21;53.57;36.01;72.13;;
66888;Laerm;67239;51.680;5.976;2023-07-22T05:31:50;63.83;38.53;79.98;;
66888;Laerm;67239;51.680;5.976;2023-07-22T05:34:20;60.14;38.51;78.64;;
66888;Laerm;67239;51.680;5.976;2023-07-22T05:36:47;41.71;37.45;52.97;;
66888;Laerm;67239;51.680;5.976;2023-07-22T05:39:17;62.70;37.11;80.66;;
66888;Laerm;67239;51.680;5.976;2023-07-22T05:41:45;65.02;38.37;78.33;;
66888;Laerm;67239;51.680;5.976;2023-07-22T05:44:15;65.95;41.20;81.40;;
66888;Laerm;67239;51.680;5.976;2023-07-22T05:46:53;62.79;37.68;81.38;;
66888;Laerm;67239;51.680;5.976;2023-07-22T05:49:20;58.31;37.04;77.81;;
66888;Laerm;67239;51.680;5.976;2023-07-22T05:51:47;67.05;40.43;80.30;;
66888;Laerm;67239;51.680;5.976;2023-07-22T05:54:14;59.94;37.61;77.64;;
66888;Laerm;67239;51.680;5.976;2023-07-22T05:56:41;65.05;37.53;83.87;;
66888;Laerm;67239;51.680;5.976;2023-07-22T05:59:08;50.55;37.02;68.66;;
66888;Laerm;67239;51.680;5.976;2023-07-22T06:01:37;61.41;37.51;77.32;;
66888;Laerm;67239;51.680;5.976;2023-07-22T06:04:05;60.75;37.94;75.84;;
66888;Laerm;67239;51.680;5.976;2023-07-22T06:06:35;63.31;38.58;78.21;;
66888;Laerm;67239;51.680;5.976;2023-07-22T06:09:05;65.38;38.00;80.56;;
66888;Laerm;67239;51.680;5.976;2023-07-22T06:11:32;63.40;36.31;77.48;;
66888;Laerm;67239;51.680;5.976;2023-07-22T06:14:05;62.55;36.49;77.78;;
66888;Laerm;67239;51.680;5.976;2023-07-22T06:16:39;60.32;36.72;74.40;;
66888;Laerm;67239;51.680;5.976;2023-07-22T06:19:07;64.92;37.48;82.04;;
66888;Laerm;67239;51.680;5.976;2023-07-22T06:21:34;63.89;37.35;80.32;;
66888;Laerm;67239;51.680;5.976;2023-07-22T06:24:01;66.83;40.87;80.32;;
66888;Laerm;67239;51.680;5.976;2023-07-22T06:26:28;63.01;38.92;76.00;;
66888;Laerm;67239;51.680;5.976;2023-07-22T06:28:55;66.40;37.78;79.17;;
66888;Laerm;67239;51.680;5.976;2023-07-22T06:31:26;64.80;37.22;78.41;;
66888;Laerm;67239;51.680;5.976;2023-07-22T06:33:58;63.87;37.60;81.57;;
66888;Laerm;67239;51.680;5.976;2023-07-22T06:36:26;60.43;36.56;77.10;;
66888;Laerm;67239;51.680;5.976;2023-07-22T06:38:56;66.41;37.83;81.83;;
66888;Laerm;67239;51.680;5.976;2023-07-22T06:41:23;66.11;39.75;80.93;;
66888;Laerm;67239;51.680;5.976;2023-07-22T06:43:53;66.59;37.84;78.03;;
66888;Laerm;67239;51.680;5.976;2023-07-22T06:46:20;63.17;40.68;75.71;;
66888;Laerm;67239;51.680;5.976;2023-07-22T06:48:48;66.64;40.04;83.78;;
66888;Laerm;67239;51.680;5.976;2023-07-22T06:51:15;67.01;39.01;82.96;;
66888;Laerm;67239;51.680;5.976;2023-07-22T06:53:42;66.38;37.19;79.97;;
66888;Laerm;67239;51.680;5.976;2023-07-22T06:56:09;57.15;37.92;72.10;;
66888;Laerm;67239;51.680;5.976;2023-07-22T06:58:37;64.14;38.77;79.55;;
66888;Laerm;67239;51.680;5.976;2023-07-22T07:01:05;67.17;41.40;82.96;;
66888;Laerm;67239;51.680;5.976;2023-07-22T07:03:32;65.31;41.16;75.86;;
66888;Laerm;67239;51.680;5.976;2023-07-22T07:06:04;64.66;39.29;77.15;;
66888;Laerm;67239;51.680;5.976;2023-07-22T07:08:33;64.51;40.15;77.63;;
66888;Laerm;67239;51.680;5.976;2023-07-22T07:11:00;62.21;38.42;78.50;;
66888;Laerm;67239;51.680;5.976;2023-07-22T07:13:30;60.37;37.99;77.33;;
66888;Laerm;67239;51.680;5.976;2023-07-22T07:16:28;63.45;39.98;76.42;;
66888;Laerm;67239;51.680;5.976;2023-07-22T07:18:58;66.55;37.86;81.49;;
66888;Laerm;67239;51.680;5.976;2023-07-22T07:21:26;65.24;38.66;80.36;;
66888;Laerm;67239;51.680;5.976;2023-07-22T07:23:54;68.52;39.73;83.59;;
66888;Laerm;67239;51.680;5.976;2023-07-22T07:26:22;69.30;40.23;81.00;;
66888;Laerm;67239;51.680;5.976;2023-07-22T07:28:51;65.70;38.00;83.82;;
66888;Laerm;67239;51.680;5.976;2023-07-22T07:31:19;59.54;38.21;79.04;;
66888;Laerm;67239;51.680;5.976;2023-07-22T07:33:46;62.97;38.82;78.52;;
66888;Laerm;67239;51.680;5.976;2023-07-22T07:36:13;64.70;39.44;78.38;;
66888;Laerm;67239;51.680;5.976;2023-07-22T07:38:41;66.88;38.44;81.56;;
66888;Laerm;67239;51.680;5.976;2023-07-22T07:41:10;66.55;40.78;80.34;;
66888;Laerm;67239;51.680;5.976;2023-07-22T07:43:42;63.71;38.31;77.91;;
66888;Laerm;67239;51.680;5.976;2023-07-22T07:46:42;62.48;37.67;80.64;;
66888;Laerm;67239;51.680;5.976;2023-07-22T07:49:09;67.76;41.00;82.06;;
66888;Laerm;67239;51.680;5.976;2023-07-22T07:51:36;66.27;39.03;82.05;;
66888;Laerm;67239;51.680;5.976;2023-07-22T07:54:04;68.33;44.94;82.84;;
66888;Laerm;67239;51.680;5.976;2023-07-22T07:56:33;65.25;42.33;76.63;;
66888;Laerm;67239;51.680;5.976;2023-07-22T07:59:00;65.52;42.05;77.07;;
66888;Laerm;67239;51.680;5.976;2023-07-22T08:01:29;65.92;43.25;80.05;;
66888;Laerm;67239;51.680;5.976;2023-07-22T08:03:57;68.77;46.16;82.74;;
66888;Laerm;67239;51.680;5.976;2023-07-22T08:06:24;65.62;38.66;80.01;;
66888;Laerm;67239;51.680;5.976;2023-07-22T08:08:51;65.76;42.67;80.79;;
66888;Laerm;67239;51.680;5.976;2023-07-22T08:11:18;68.64;45.31;80.53;;
66888;Laerm;67239;51.680;5.976;2023-07-22T08:13:46;67.31;45.70;81.64;;
66888;Laerm;67239;51.680;5.976;2023-07-22T08:16:14;64.87;44.08;77.63;;
66888;Laerm;67239;51.680;5.976;2023-07-22T08:18:41;69.06;49.09;85.14;;
66888;Laerm;67239;51.680;5.976;2023-07-22T08:21:09;66.28;39.49;81.06;;
66888;Laerm;67239;51.680;5.976;2023-07-22T08:23:36;67.06;43.55;81.82;;
66888;Laerm;67239;51.680;5.976;2023-07-22T08:26:09;64.74;41.71;78.74;;
66888;Laerm;67239;51.680;5.976;2023-07-22T08:28:38;66.89;43.84;77.30;;
66888;Laerm;67239;51.680;5.976;2023-07-22T08:31:05;65.35;43.53;76.88;;
66888;Laerm;67239;51.680;5.976;2023-07-22T08:33:32;64.58;40.12;76.98;;
66888;Laerm;67239;51.680;5.976;2023-07-22T08:36:02;65.42;38.98;79.05;;
66888;Laerm;67239;51.680;5.976;2023-07-22T08:38:29;68.40;45.71;83.26;;
66888;Laerm;67239;51.680;5.976;2023-07-22T08:40:57;68.58;47.95;78.69;;
66888;Laerm;67239;51.680;5.976;2023-07-22T08:43:27;67.00;41.25;79.53;;
66888;Laerm;67239;51.680;5.976;2023-07-22T08:46:00;65.93;40.50;79.13;;
66888;Laerm;67239;51.680;5.976;2023-07-22T08:48:34;63.06;40.70;77.20;;
66888;Laerm;67239;51.680;5.976;2023-07-22T08:51:10;64.49;39.29;76.28;;
66888;Laerm;67239;51.680;5.976;2023-07-22T08:53:40;69.83;44.42;82.49;;
66888;Laerm;67239;51.680;5.976;2023-07-22T08:56:08;65.78;43.77;78.48;;
66888;Laerm;67239;51.680;5.976;2023-07-22T08:58:38;68.05;47.38;80.11;;
66888;Laerm;67239;51.680;5.976;2023-07-22T09:01:06;64.15;41.51;76.64;;
66888;Laerm;67239;51.680;5.976;2023-07-22T09:03:35;65.41;41.13;77.58;;
66888;Laerm;67239;51.680;5.976;2023-07-22T09:06:04;66.33;40.31;80.23;;
66888;Laerm;67239;51.680;5.976;2023-07-22T09:08:31;68.97;40.30;81.01;;
66888;Laerm;67239;51.680;5.976;2023-07-22T09:10:58;65.26;39.41;80.24;;
66888;Laerm;67239;51.680;5.976;2023-07-22T09:13:26;66.15;39.49;80.59;;
66888;Laerm;67239;51.680;5.976;2023-07-22T09:15:57;66.35;42.51;77.12;;
66888;Laerm;67239;51.680;5.976;2023-07-22T09:18:26;66.73;48.73;80.35;;
66888;Laerm;67239;51.680;5.976;2023-07-22T09:20:53;63.73;42.34;76.07;;
66888;Laerm;67239;51.680;5.976;2023-07-22T09:23:40;66.08;42.29;79.92;;
66888;Laerm;67239;51.680;5.976;2023-07-22T09:26:13;64.84;50.06;76.78;;
66888;Laerm;67239;51.680;5.976;2023-07-22T09:31:15;68.59;48.62;80.18;;
66888;Laerm;67239;51.680;5.976;2023-07-22T09:33:42;64.76;45.40;78.43;;
66888;Laerm;67239;51.680;5.976;2023-07-22T09:36:11;66.50;51.48;81.08;;
66888;Laerm;67239;51.680;5.976;2023-07-22T09:38:38;65.49;52.76;79.06;;
66888;Laerm;67239;51.680;5.976;2023-07-22T09:41:06;65.37;51.38;77.46;;
66888;Laerm;67239;51.680;5.976;2023-07-22T09:43:37;65.68;46.61;81.67;;
66888;Laerm;67239;51.680;5.976;2023-07-22T09:46:10;67.36;45.71;78.21;;
66888;Laerm;67239;51.680;5.976;2023-07-22T09:48:44;66.68;47.21;78.28;;
66888;Laerm;67239;51.680;5.976;2023-07-22T09:51:15;65.72;41.51;77.71;;
66888;Laerm;67239;51.680;5.976;2023-07-22T09:53:48;66.63;48.21;78.50;;
66888;Laerm;67239;51.680;5.976;2023-07-22T09:56:26;67.76;42.72;78.45;;
66888;Laerm;67239;51.680;5.976;2023-07-22T09:58:55;66.32;40.72;80.74;;
66888;Laerm;67239;51.680;5.976;2023-07-22T10:01:25;65.11;42.90;78.95;;
66888;Laerm;67239;51.680;5.976;2023-07-22T10:03:56;67.97;47.63;79.30;;
66888;Laerm;67239;51.680;5.976;2023-07-22T10:06:28;64.79;41.89;76.56;;
66888;Laerm;67239;51.680;5.976;2023-07-22T10:08:56;67.37;44.08;77.82;;
66888;Laerm;67239;51.680;5.976;2023-07-22T10:11:27;68.76;43.95;79.80;;
66888;Laerm;67239;51.680;5.976;2023-07-22T10:13:55;68.35;45.85;80.21;;
66888;Laerm;67239;51.680;5.976;2023-07-22T10:16:23;65.56;40.42;77.69;;
66888;Laerm;67239;51.680;5.976;2023-07-22T10:18:53;64.47;40.71;76.83;;
66888;Laerm;67239;51.680;5.976;2023-07-22T10:21:22;67.38;43.64;80.18;;
66888;Laerm;67239;51.680;5.976;2023-07-22T10:23:51;65.18;44.54;77.31;;
66888;Laerm;67239;51.680;5.976;2023-07-22T10:26:19;67.84;44.94;81.60;;
66888;Laerm;67239;51.680;5.976;2023-07-22T10:28:59;65.33;40.92;80.76;;
66888;Laerm;67239;51.680;5.976;2023-07-22T10:31:31;64.50;43.61;76.20;;
66888;Laerm;67239;51.680;5.976;2023-07-22T10:33:58;66.34;40.64;78.05;;
66888;Laerm;67239;51.680;5.976;2023-07-22T10:36:29;66.69;43.93;79.87;;
66888;Laerm;67239;51.680;5.976;2023-07-22T10:38:59;67.99;51.68;79.56;;
66888;Laerm;67239;51.680;5.976;2023-07-22T10:41:38;66.44;45.36;80.54;;
66888;Laerm;67239;51.680;5.976;2023-07-22T10:44:06;67.02;41.04;80.06;;
66888;Laerm;67239;51.680;5.976;2023-07-22T10:46:38;60.27;39.50;78.00;;
66888;Laerm;67239;51.680;5.976;2023-07-22T10:51:40;66.56;41.59;77.65;;
66888;Laerm;67239;51.680;5.976;2023-07-22T10:54:12;67.31;46.69;82.61;;
66888;Laerm;67239;51.680;5.976;2023-07-22T10:56:44;67.21;42.04;79.09;;
66888;Laerm;67239;51.680;5.976;2023-07-22T10:59:12;65.81;41.24;78.60;;
66888;Laerm;67239;51.680;5.976;2023-07-22T11:01:43;66.55;44.08;80.44;;
66888;Laerm;67239;51.680;5.976;2023-07-22T11:04:20;66.49;45.46;78.61;;
66888;Laerm;67239;51.680;5.976;2023-07-22T11:14:51;64.81;41.22;80.54;;
66888;Laerm;67239;51.680;5.976;2023-07-22T11:17:30;64.86;44.07;77.27;;
66888;Laerm;67239;51.680;5.976;2023-07-22T11:20:00;65.04;45.29;78.95;;
66888;Laerm;67239;51.680;5.976;2023-07-22T11:22:33;62.88;42.77;79.26;;
66888;Laerm;67239;51.680;5.976;2023-07-22T11:25:00;65.86;44.48;78.75;;
66888;Laerm;67239;51.680;5.976;2023-07-22T11:27:28;65.76;45.68;77.52;;
66888;Laerm;67239;51.680;5.976;2023-07-22T11:30:01;67.78;46.31;78.22;;
66888;Laerm;67239;51.680;5.976;2023-07-22T11:32:32;65.01;45.88;77.01;;
66888;Laerm;67239;51.680;5.976;2023-07-22T11:35:01;69.10;45.21;87.72;;
66888;Laerm;67239;51.680;5.976;2023-07-22T11:37:28;69.32;44.99;80.00;;
66888;Laerm;67239;51.680;5.976;2023-07-22T11:40:02;66.85;40.58;79.69;;
66888;Laerm;67239;51.680;5.976;2023-07-22T11:42:34;67.62;43.52;84.56;;
66888;Laerm;67239;51.680;5.976;2023-07-22T11:45:02;67.67;47.48;80.83;;
66888;Laerm;67239;51.680;5.976;2023-07-22T11:47:31;64.81;47.58;78.87;;
66888;Laerm;67239;51.680;5.976;2023-07-22T11:49:59;67.56;44.39;80.17;;
66888;Laerm;67239;51.680;5.976;2023-07-22T11:52:27;66.51;47.61;77.20;;
66888;Laerm;67239;51.680;5.976;2023-07-22T11:55:02;67.67;44.33;77.97;;
66888;Laerm;67239;51.680;5.976;2023-07-22T11:57:30;67.97;46.29;78.02;;
66888;Laerm;67239;51.680;5.976;2023-07-22T11:59:57;65.58;44.70;76.66;;
66888;Laerm;67239;51.680;5.976;2023-07-22T12:02:27;68.62;44.27;79.59;;
66888;Laerm;67239;51.680;5.976;2023-07-22T12:05:03;68.26;43.70;81.25;;
66888;Laerm;67239;51.680;5.976;2023-07-22T12:07:34;67.05;46.45;80.47;;
66888;Laerm;67239;51.680;5.976;2023-07-22T12:10:07;66.84;45.52;81.65;;
66888;Laerm;67239;51.680;5.976;2023-07-22T12:12:40;62.33;47.12;76.46;;
66888;Laerm;67239;51.680;5.976;2023-07-22T12:15:21;65.15;45.59;80.68;;
66888;Laerm;67239;51.680;5.976;2023-07-22T12:17:59;65.70;45.08;80.91;;
66888;Laerm;67239;51.680;5.976;2023-07-22T12:20:29;65.72;44.85;77.72;;
66888;Laerm;67239;51.680;5.976;2023-07-22T12:22:57;65.41;41.25;77.01;;
66888;Laerm;67239;51.680;5.976;2023-07-22T12:25:27;65.34;42.39;79.12;;
66888;Laerm;67239;51.680;5.976;2023-07-22T12:27:54;64.53;48.52;77.04;;
66888;Laerm;67239;51.680;5.976;2023-07-22T12:30:21;64.74;46.09;79.29;;
66888;Laerm;67239;51.680;5.976;2023-07-22T12:32:48;63.50;48.89;75.10;;
66888;Laerm;67239;51.680;5.976;2023-07-22T12:35:16;69.33;48.05;85.48;;
66888;Laerm;67239;51.680;5.976;2023-07-22T12:37:43;64.75;44.21;78.74;;
66888;Laerm;67239;51.680;5.976;2023-07-22T12:40:11;64.73;44.15;77.21;;
66888;Laerm;67239;51.680;5.976;2023-07-22T12:42:40;65.47;45.37;78.55;;
66888;Laerm;67239;51.680;5.976;2023-07-22T12:45:09;66.95;42.01;78.99;;
66888;Laerm;67239;51.680;5.976;2023-07-22T12:47:36;64.88;43.82;76.86;;
66888;Laerm;67239;51.680;5.976;2023-07-22T12:50:06;65.74;46.31;77.37;;
66888;Laerm;67239;51.680;5.976;2023-07-22T12:52:36;68.06;46.36;81.76;;
66888;Laerm;67239;51.680;5.976;2023-07-22T12:55:06;67.19;49.91;80.14;;
66888;Laerm;67239;51.680;5.976;2023-07-22T12:57:33;66.11;49.53;79.56;;
66888;Laerm;67239;51.680;5.976;2023-07-22T13:00:00;62.60;41.58;77.85;;
66888;Laerm;67239;51.680;5.976;2023-07-22T13:02:28;65.01;40.28;78.96;;
66888;Laerm;67239;51.680;5.976;2023-07-22T13:04:55;65.22;46.03;77.20;;
66888;Laerm;67239;51.680;5.976;2023-07-22T13:07:22;66.82;43.01;84.06;;
66888;Laerm;67239;51.680;5.976;2023-07-22T13:09:50;66.42;46.43;77.25;;
66888;Laerm;67239;51.680;5.976;2023-07-22T13:12:19;65.34;46.00;76.77;;
66888;Laerm;67239;51.680;5.976;2023-07-22T13:14:46;65.31;46.96;78.04;;
66888;Laerm;67239;51.680;5.976;2023-07-22T13:17:15;69.53;43.28;82.60;;
66888;Laerm;67239;51.680;5.976;2023-07-22T13:19:42;64.24;42.38;76.92;;
66888;Laerm;67239;51.680;5.976;2023-07-22T13:22:09;67.06;45.78;77.17;;
66888;Laerm;67239;51.680;5.976;2023-07-22T13:24:36;66.81;43.97;79.94;;
66888;Laerm;67239;51.680;5.976;2023-07-22T13:27:04;67.13;53.00;82.04;;
66888;Laerm;67239;51.680;5.976;2023-07-22T13:29:32;68.01;57.38;81.39;;
66888;Laerm;67239;51.680;5.976;2023-07-22T13:31:59;65.90;43.11;77.54;;
66888;Laerm;67239;51.680;5.976;2023-07-22T13:34:28;67.41;51.77;78.61;;
66888;Laerm;67239;51.680;5.976;2023-07-22T13:36:55;65.62;42.54;79.17;;
66888;Laerm;67239;51.680;5.976;2023-07-22T13:39:23;65.49;41.42;78.38;;
66888;Laerm;67239;51.680;5.976;2023-07-22T13:41:50;63.62;38.82;79.88;;
66888;Laerm;67239;51.680;5.976;2023-07-22T13:44:17;61.94;38.91;80.46;;
66888;Laerm;67239;51.680;5.976;2023-07-22T13:46:45;64.13;38.94;77.57;;
66888;Laerm;67239;51.680;5.976;2023-07-22T13:49:12;62.17;44.85;76.69;;
66888;Laerm;67239;51.680;5.976;2023-07-22T13:51:39;63.24;43.24;75.12;;
66888;Laerm;67239;51.680;5.976;2023-07-22T13:54:06;65.07;42.13;76.87;;
66888;Laerm;67239;51.680;5.976;2023-07-22T13:56:33;65.37;43.93;77.95;;
66888;Laerm;67239;51.680;5.976;2023-07-22T13:59:01;64.08;43.44;76.93;;
66888;Laerm;67239;51.680;5.976;2023-07-22T14:01:31;63.35;44.75;75.35;;
66888;Laerm;67239;51.680;5.976;2023-07-22T14:03:58;65.36;43.24;77.50;;
66888;Laerm;67239;51.680;5.976;2023-07-22T14:06:25;65.75;40.34;79.86;;